Time;durP1;ratioP1;P1;durP2;ratioP2;P2;SDS_P1;SDS_P2;PMS_P1;PMS_P2;Temp;Humidity;BMP_temperature;BMP_pressure;BME280_temperature;BME280_humidity;BME280_pressure;Samples;Min_cycle;Max_cycle;Signal;HPM_P1;HPM_P2
2023/03/02 00:01:42;;;;;;;1.30;1.17;;;;;;;;;;5089344;28;20036;-83
2023/03/02 00:04:34;;;;;;;5.57;1.50;;;;;;;;;;5089505;28;20077;-82
2023/03/02 00:07:04;;;;;;;2.08;0.82;;;;;;;;;;5081266;28;20055;-82
2023/03/02 00:09:31;;;;;;;3.92;1.67;;;;;;;;;;5083229;28;20031;-82
2023/03/02 00:11:56;;;;;;;2.53;1.30;;;;;;;;;;5081288;28;20114;-81
2023/03/02 00:14:22;;;;;;;2.55;1.58;;;;;;;;;;5087486;28;20448;-83
2023/03/02 00:16:47;;;;;;;1.48;0.80;;;;;;;;;;5083038;28;20111;-81
2023/03/02 00:19:13;;;;;;;1.60;1.02;;;;;;;;;;5085298;28;20122;-81
2023/03/02 00:21:40;;;;;;;2.65;1.67;;;;;;;;;;5086656;28;20028;-82
2023/03/02 00:24:05;;;;;;;1.52;1.40;;;;;;;;;;5084131;28;20115;-82
2023/03/02 00:26:35;;;;;;;2.13;1.60;;;;;;;;;;5082794;28;20063;-82
2023/03/02 00:29:01;;;;;;;3.75;2.13;;;;;;;;;;5084104;28;20111;-82
2023/03/02 00:31:26;;;;;;;7.60;1.50;;;;;;;;;;5085889;28;20083;-82
2023/03/02 00:33:55;;;;;;;2.78;1.52;;;;;;;;;;5080249;28;20035;-83
2023/03/02 00:36:22;;;;;;;2.03;1.67;;;;;;;;;;5082052;28;20532;-82
2023/03/02 00:38:48;;;;;;;4.20;2.47;;;;;;;;;;5081787;28;20475;-82
2023/03/02 00:41:15;;;;;;;6.43;1.98;;;;;;;;;;5088684;28;20047;-82
2023/03/02 00:43:41;;;;;;;1.25;1.15;;;;;;;;;;5082406;28;20027;-81
2023/03/02 00:46:18;;;;;;;1.65;1.50;;;;;;;;;;5079887;28;20024;-82
2023/03/02 00:48:44;;;;;;;3.85;2.53;;;;;;;;;;5082358;28;20031;-79
2023/03/02 00:51:10;;;;;;;1.77;1.40;;;;;;;;;;5084164;28;20401;-80
2023/03/02 00:53:36;;;;;;;1.33;1.23;;;;;;;;;;5082008;28;20478;-81
2023/03/02 00:56:03;;;;;;;1.88;1.35;;;;;;;;;;5086340;28;20024;-79
2023/03/02 00:58:29;;;;;;;5.10;1.13;;;;;;;;;;5084100;28;20028;-80
2023/03/02 01:00:56;;;;;;;2.35;1.92;;;;;;;;;;5085109;28;20024;-80
2023/03/02 01:03:21;;;;;;;1.83;1.40;;;;;;;;;;5082054;28;20024;-80
2023/03/02 01:05:48;;;;;;;1.23;1.05;;;;;;;;;;5077320;28;20464;-81
2023/03/02 01:08:13;;;;;;;1.70;1.10;;;;;;;;;;5081196;28;20031;-82
2023/03/02 01:10:39;;;;;;;2.75;1.63;;;;;;;;;;5090819;28;20502;-81
2023/03/02 01:13:06;;;;;;;4.20;1.98;;;;;;;;;;5082355;28;20422;-81
2023/03/02 01:15:32;;;;;;;2.25;1.38;;;;;;;;;;5084007;28;20553;-81
2023/03/02 01:17:59;;;;;;;1.67;1.17;;;;;;;;;;5088358;28;20360;-80
2023/03/02 01:20:25;;;;;;;2.13;1.50;;;;;;;;;;5081863;28;20028;-82
2023/03/02 01:22:50;;;;;;;2.45;1.23;;;;;;;;;;5108919;28;20380;-79
2023/03/02 01:25:15;;;;;;;2.05;1.52;;;;;;;;;;5084200;28;20388;-80
2023/03/02 01:27:41;;;;;;;2.75;1.73;;;;;;;;;;5088638;28;20032;-82
2023/03/02 01:30:07;;;;;;;3.03;1.40;;;;;;;;;;5090097;28;20020;-82
2023/03/02 01:32:32;;;;;;;1.55;1.10;;;;;;;;;;5086176;28;20123;-82
2023/03/02 01:34:58;;;;;;;1.30;1.20;;;;;;;;;;5091504;28;20063;-81
2023/03/02 01:37:23;;;;;;;3.95;1.05;;;;;;;;;;5088982;28;20025;-82
2023/03/02 01:39:49;;;;;;;1.20;0.85;;;;;;;;;;5091178;28;20016;-82
2023/03/02 01:42:15;;;;;;;0.95;0.60;;;;;;;;;;5081162;28;20066;-81
2023/03/02 01:44:45;;;;;;;0.90;0.60;;;;;;;;;;5084839;28;20082;-82
2023/03/02 01:47:20;;;;;;;;;;;;;;;;;;5112126;28;20396;-81
2023/03/02 01:49:51;;;;;;;0.82;0.75;;;;;;;;;;5088032;28;19912;-82
2023/03/02 01:52:18;;;;;;;0.90;0.68;;;;;;;;;;5092728;28;20020;-82
2023/03/02 01:54:48;;;;;;;2.42;0.98;;;;;;;;;;5090580;28;20021;-82
2023/03/02 01:57:19;;;;;;;0.80;0.80;;;;;;;;;;5088931;28;20020;-80
2023/03/02 01:59:46;;;;;;;0.73;0.63;;;;;;;;;;5088181;28;20020;-81
2023/03/02 02:02:11;;;;;;;0.98;0.88;;;;;;;;;;5087877;28;20456;-82
2023/03/02 02:04:43;;;;;;;1.52;1.40;;;;;;;;;;5086250;28;20023;-82
2023/03/02 02:07:09;;;;;;;1.42;0.70;;;;;;;;;;5084280;28;20030;-82
2023/03/02 02:09:46;;;;;;;0.45;0.43;;;;;;;;;;5090051;28;20107;-82
2023/03/02 02:12:14;;;;;;;1.45;0.80;;;;;;;;;;5084569;28;20399;-82
2023/03/02 02:14:40;;;;;;;2.47;1.17;;;;;;;;;;5080167;28;20142;-81
2023/03/02 02:17:07;;;;;;;0.63;0.63;;;;;;;;;;5089911;28;20052;-82
2023/03/02 02:20:08;;;;;;;2.72;1.92;;;;;;;;;;5087338;28;20028;-81
2023/03/02 02:22:50;;;;;;;0.80;0.80;;;;;;;;;;5088339;28;20067;-83
2023/03/02 02:25:40;;;;;;;3.17;1.30;;;;;;;;;;5085128;28;20032;-81
2023/03/02 02:28:11;;;;;;;1.77;0.95;;;;;;;;;;5092949;28;20110;-82
2023/03/02 02:30:39;;;;;;;3.17;1.85;;;;;;;;;;5109002;28;20135;-81
2023/03/02 02:33:06;;;;;;;2.20;1.35;;;;;;;;;;5085302;28;20655;-82
2023/03/02 02:35:35;;;;;;;0.88;0.82;;;;;;;;;;5086190;28;20033;-81
2023/03/02 02:38:04;;;;;;;2.50;1.20;;;;;;;;;;5088291;28;20031;-81
2023/03/02 02:40:50;;;;;;;0.90;0.63;;;;;;;;;;5088808;28;20451;-82
2023/03/02 02:43:20;;;;;;;1.35;0.80;;;;;;;;;;5088903;28;20029;-82
2023/03/02 02:45:47;;;;;;;0.47;0.47;;;;;;;;;;5083488;28;20041;-81
2023/03/02 02:48:19;;;;;;;0.75;0.70;;;;;;;;;;5087683;28;20029;-80
2023/03/02 02:50:46;;;;;;;0.68;0.65;;;;;;;;;;5089618;28;20040;-83
2023/03/02 02:53:23;;;;;;;0.73;0.55;;;;;;;;;;5091655;28;20054;-83
2023/03/02 02:55:52;;;;;;;0.50;0.50;;;;;;;;;;5085506;28;20030;-81
2023/03/02 02:58:47;;;;;;;0.63;0.60;;;;;;;;;;5084687;28;20120;-82
2023/03/02 03:01:15;;;;;;;1.05;0.90;;;;;;;;;;5110262;28;20039;-81
2023/03/02 03:03:54;;;;;;;0.75;0.65;;;;;;;;;;5086100;28;20028;-82
2023/03/02 03:06:24;;;;;;;1.35;0.85;;;;;;;;;;5087356;28;20034;-82
2023/03/02 03:08:54;;;;;;;1.38;1.15;;;;;;;;;;5080727;28;20060;-82
2023/03/02 03:11:25;;;;;;;1.52;0.85;;;;;;;;;;5088001;28;20032;-81
2023/03/02 03:14:15;;;;;;;0.90;0.68;;;;;;;;;;5085200;28;20047;-82
2023/03/02 03:16:43;;;;;;;1.00;0.60;;;;;;;;;;5086627;28;20437;-82
2023/03/02 03:19:25;;;;;;;0.85;0.80;;;;;;;;;;5085536;28;20028;-83
2023/03/02 03:21:56;;;;;;;1.52;0.98;;;;;;;;;;5082001;28;20028;-83
2023/03/02 03:24:23;;;;;;;1.75;1.02;;;;;;;;;;5086917;28;20461;-83
2023/03/02 03:26:49;;;;;;;1.73;1.02;;;;;;;;;;5085312;28;20484;-82
2023/03/02 03:29:16;;;;;;;1.33;0.98;;;;;;;;;;5084935;28;20035;-82
2023/03/02 03:31:41;;;;;;;0.60;0.50;;;;;;;;;;5083035;28;20564;-81
2023/03/02 03:34:07;;;;;;;2.88;2.25;;;;;;;;;;5082823;28;20107;-82
2023/03/02 03:36:33;;;;;;;0.63;0.60;;;;;;;;;;5083763;28;20039;-80
2023/03/02 03:39:00;;;;;;;2.63;1.55;;;;;;;;;;5087478;28;20028;-82
2023/03/02 03:41:25;;;;;;;0.85;0.60;;;;;;;;;;5086871;28;20414;-81
2023/03/02 03:43:51;;;;;;;1.10;0.85;;;;;;;;;;5081218;28;20028;-81
2023/03/02 03:46:17;;;;;;;0.65;0.65;;;;;;;;;;5088737;28;20031;-82
2023/03/02 03:48:43;;;;;;;1.58;1.10;;;;;;;;;;5088415;28;20032;-82
2023/03/02 03:51:08;;;;;;;0.70;0.68;;;;;;;;;;5085195;28;20027;-83
2023/03/02 03:53:34;;;;;;;0.65;0.60;;;;;;;;;;5078630;28;20038;-81
2023/03/02 03:56:02;;;;;;;2.40;1.60;;;;;;;;;;5081331;28;20031;-82
2023/03/02 03:58:28;;;;;;;1.25;0.90;;;;;;;;;;5079667;28;20058;-82
2023/03/02 04:00:54;;;;;;;1.17;0.82;;;;;;;;;;5086359;28;20024;-82
2023/03/02 04:03:19;;;;;;;2.60;2.05;;;;;;;;;;5108716;28;20042;-82
2023/03/02 04:05:46;;;;;;;0.95;0.80;;;;;;;;;;5078807;28;20025;-81
2023/03/02 04:08:15;;;;;;;0.68;0.68;;;;;;;;;;5082483;28;20031;-82
2023/03/02 04:10:40;;;;;;;1.95;0.95;;;;;;;;;;5079415;28;20028;-83
2023/03/02 04:13:06;;;;;;;0.70;0.60;;;;;;;;;;5084042;28;20040;-82
2023/03/02 04:15:31;;;;;;;2.10;1.30;;;;;;;;;;5084281;28;20460;-81
2023/03/02 04:17:57;;;;;;;1.42;1.23;;;;;;;;;;5086558;28;20383;-82
2023/03/02 04:20:24;;;;;;;1.75;1.15;;;;;;;;;;5086794;28;20569;-81
2023/03/02 04:22:51;;;;;;;0.90;0.50;;;;;;;;;;5107038;28;20043;-81
2023/03/02 04:25:20;;;;;;;1.38;1.20;;;;;;;;;;5083554;28;20040;-82
2023/03/02 04:27:47;;;;;;;1.20;1.13;;;;;;;;;;5083753;28;20024;-83
2023/03/02 04:30:15;;;;;;;1.27;1.10;;;;;;;;;;5083666;28;20020;-82
2023/03/02 04:32:42;;;;;;;1.45;0.75;;;;;;;;;;5081024;28;20040;-82
2023/03/02 04:35:09;;;;;;;2.70;1.05;;;;;;;;;;5087012;28;20027;-80
2023/03/02 04:37:35;;;;;;;2.25;1.50;;;;;;;;;;5087846;28;20036;-80
2023/03/02 04:40:01;;;;;;;0.95;0.90;;;;;;;;;;5084099;28;20098;-82
2023/03/02 04:42:26;;;;;;;0.65;0.65;;;;;;;;;;5086693;28;20025;-80
2023/03/02 04:44:51;;;;;;;0.73;0.73;;;;;;;;;;5082049;28;20170;-81
2023/03/02 04:47:17;;;;;;;0.77;0.77;;;;;;;;;;5087808;28;20035;-80
2023/03/02 04:49:42;;;;;;;3.03;1.17;;;;;;;;;;5080731;28;20031;-78
2023/03/02 04:52:08;;;;;;;1.63;1.02;;;;;;;;;;5080816;28;20412;-81
2023/03/02 04:54:33;;;;;;;1.58;1.40;;;;;;;;;;5085791;28;20032;-81
2023/03/02 04:56:59;;;;;;;1.75;1.38;;;;;;;;;;5080134;28;20467;-80
2023/03/02 04:59:26;;;;;;;2.53;1.67;;;;;;;;;;5082675;28;20077;-79
2023/03/02 05:01:54;;;;;;;1.92;1.50;;;;;;;;;;5088019;28;20023;-83
2023/03/02 05:04:22;;;;;;;2.83;1.05;;;;;;;;;;5085966;28;20055;-81
2023/03/02 05:06:51;;;;;;;1.42;1.33;;;;;;;;;;5084741;28;20394;-80
2023/03/02 05:09:17;;;;;;;1.63;1.10;;;;;;;;;;5086072;28;20063;-81
2023/03/02 05:11:42;;;;;;;2.00;1.33;;;;;;;;;;5085510;28;20055;-83
2023/03/02 05:14:10;;;;;;;2.45;1.25;;;;;;;;;;5079630;28;20040;-80
2023/03/02 05:16:37;;;;;;;1.80;1.60;;;;;;;;;;5080331;28;20034;-82
2023/03/02 05:19:04;;;;;;;1.77;1.33;;;;;;;;;;5082180;28;20024;-81
2023/03/02 05:21:30;;;;;;;2.40;1.77;;;;;;;;;;5080707;28;20024;-80
2023/03/02 05:23:56;;;;;;;1.67;0.93;;;;;;;;;;5085081;28;20027;-82
2023/03/02 05:26:21;;;;;;;4.00;2.10;;;;;;;;;;5082772;28;20020;-82
2023/03/02 05:28:47;;;;;;;1.52;1.10;;;;;;;;;;5084065;28;20043;-84
2023/03/02 05:31:30;;;;;;;1.73;1.58;;;;;;;;;;5083284;28;20040;-81
2023/03/02 05:33:56;;;;;;;1.95;0.82;;;;;;;;;;5083424;28;20115;-79
2023/03/02 05:36:22;;;;;;;4.13;1.73;;;;;;;;;;5084516;28;20029;-81
2023/03/02 05:38:47;;;;;;;1.63;1.40;;;;;;;;;;5080537;28;20369;-83
2023/03/02 05:41:13;;;;;;;4.65;2.50;;;;;;;;;;5086569;28;20050;-82
2023/03/02 05:43:38;;;;;;;2.63;1.08;;;;;;;;;;5078604;28;20020;-82
2023/03/02 05:46:04;;;;;;;2.17;1.35;;;;;;;;;;5081042;28;20043;-80
2023/03/02 05:48:30;;;;;;;2.22;1.38;;;;;;;;;;5081453;28;20028;-82
2023/03/02 05:50:56;;;;;;;3.00;1.52;;;;;;;;;;5077833;28;20024;-79
2023/03/02 05:53:21;;;;;;;1.33;0.82;;;;;;;;;;5085382;28;20566;-79
2023/03/02 05:55:47;;;;;;;0.75;0.75;;;;;;;;;;5080386;28;20032;-79
2023/03/02 05:58:16;;;;;;;3.33;1.52;;;;;;;;;;5085615;28;20555;-83
2023/03/02 06:00:41;;;;;;;2.53;1.67;;;;;;;;;;5079548;28;20020;-83
2023/03/02 06:03:07;;;;;;;2.33;1.70;;;;;;;;;;5095022;28;20098;-81
2023/03/02 06:05:32;;;;;;;1.52;0.90;;;;;;;;;;5079700;28;20032;-83
2023/03/02 06:07:58;;;;;;;3.38;1.45;;;;;;;;;;5079641;28;20426;-80
2023/03/02 06:10:24;;;;;;;1.55;1.13;;;;;;;;;;5080031;28;22050;-79
2023/03/02 06:12:49;;;;;;;1.88;1.08;;;;;;;;;;5083538;28;20081;-81
2023/03/02 06:15:15;;;;;;;1.70;1.13;;;;;;;;;;5101646;28;20114;-81
2023/03/02 06:17:41;;;;;;;3.25;1.38;;;;;;;;;;5087240;28;20476;-81
2023/03/02 06:20:09;;;;;;;2.85;1.48;;;;;;;;;;5089266;28;20024;-82
2023/03/02 06:22:40;;;;;;;6.45;2.10;;;;;;;;;;5084608;28;20124;-79
2023/03/02 06:25:07;;;;;;;3.33;1.58;;;;;;;;;;5087071;28;20025;-83
2023/03/02 06:27:33;;;;;;;3.47;2.53;;;;;;;;;;5088575;28;20077;-81
2023/03/02 06:29:58;;;;;;;2.42;1.63;;;;;;;;;;5083558;28;20143;-82
2023/03/02 06:32:23;;;;;;;4.20;2.10;;;;;;;;;;5087341;28;20075;-81
2023/03/02 06:34:49;;;;;;;4.28;1.98;;;;;;;;;;5086708;28;20024;-83
2023/03/02 06:37:14;;;;;;;4.88;2.78;;;;;;;;;;5089349;28;20059;-80
2023/03/02 06:39:40;;;;;;;4.20;2.65;;;;;;;;;;5089744;28;20032;-81
2023/03/02 06:42:05;;;;;;;2.97;1.80;;;;;;;;;;5089083;28;20027;-81
2023/03/02 06:44:30;;;;;;;2.22;1.77;;;;;;;;;;5109085;28;20027;-77
2023/03/02 06:46:56;;;;;;;6.32;2.20;;;;;;;;;;5083630;28;20065;-79
2023/03/02 06:49:21;;;;;;;2.50;1.67;;;;;;;;;;5086845;28;20388;-81
2023/03/02 06:51:46;;;;;;;2.63;1.42;;;;;;;;;;5107300;28;20063;-81
2023/03/02 06:54:12;;;;;;;2.65;2.28;;;;;;;;;;5083225;28;20031;-81
2023/03/02 06:56:38;;;;;;;4.40;2.42;;;;;;;;;;5084529;28;20119;-81
2023/03/02 06:59:03;;;;;;;1.77;1.35;;;;;;;;;;5086561;28;20031;-79
2023/03/02 07:01:34;;;;;;;3.20;1.95;;;;;;;;;;5083535;28;20024;-80
2023/03/02 07:04:03;;;;;;;3.60;2.13;;;;;;;;;;5080840;28;20112;-80
2023/03/02 07:06:28;;;;;;;1.67;1.50;;;;;;;;;;5084569;28;20093;-81
2023/03/02 07:08:54;;;;;;;1.88;1.58;;;;;;;;;;5083481;28;20025;-81
2023/03/02 07:11:19;;;;;;;2.25;1.85;;;;;;;;;;5082510;28;20020;-80
2023/03/02 07:13:45;;;;;;;2.03;1.77;;;;;;;;;;5084767;28;20028;-81
2023/03/02 07:16:12;;;;;;;3.50;1.92;;;;;;;;;;5087718;28;20499;-81
2023/03/02 07:18:38;;;;;;;3.55;2.25;;;;;;;;;;5081282;28;20858;-80
2023/03/02 07:21:04;;;;;;;4.85;2.33;;;;;;;;;;5081463;28;20099;-81
2023/03/02 07:23:31;;;;;;;3.50;2.55;;;;;;;;;;5079866;28;20372;-81
2023/03/02 07:25:56;;;;;;;12.63;4.30;;;;;;;;;;5077681;28;20028;-81
2023/03/02 07:28:23;;;;;;;4.57;4.07;;;;;;;;;;5081682;28;20031;-82
2023/03/02 07:30:49;;;;;;;2.95;1.60;;;;;;;;;;5083372;28;20432;-81
2023/03/02 07:33:15;;;;;;;2.10;1.52;;;;;;;;;;5086557;28;20055;-79
2023/03/02 07:35:40;;;;;;;3.13;1.77;;;;;;;;;;5106789;28;20417;-81
2023/03/02 07:38:06;;;;;;;3.72;2.17;;;;;;;;;;5084989;28;20546;-84
2023/03/02 07:40:32;;;;;;;3.65;2.35;;;;;;;;;;5085489;28;20530;-81
2023/03/02 07:42:58;;;;;;;3.58;2.92;;;;;;;;;;5086147;28;20039;-81
2023/03/02 07:45:24;;;;;;;3.63;2.45;;;;;;;;;;5077529;28;20032;-81
2023/03/02 07:47:50;;;;;;;5.50;3.08;;;;;;;;;;5076379;28;20112;-80
2023/03/02 07:50:15;;;;;;;3.63;2.63;;;;;;;;;;5086148;28;20107;-80
2023/03/02 07:52:41;;;;;;;4.30;2.80;;;;;;;;;;5075779;28;20032;-81
2023/03/02 07:55:06;;;;;;;3.05;2.42;;;;;;;;;;5084410;28;20281;-81
2023/03/02 07:57:32;;;;;;;3.35;2.55;;;;;;;;;;5088727;28;20032;-82
2023/03/02 07:59:57;;;;;;;4.20;2.05;;;;;;;;;;5081782;28;20024;-79
2023/03/02 08:02:24;;;;;;;4.10;2.08;;;;;;;;;;5085522;28;20491;-78
2023/03/02 08:04:49;;;;;;;2.33;1.98;;;;;;;;;;5081043;28;20020;-80
2023/03/02 08:07:17;;;;;;;2.88;2.40;;;;;;;;;;5083381;28;20375;-80
2023/03/02 08:09:42;;;;;;;4.35;3.22;;;;;;;;;;5088425;28;20036;-78
2023/03/02 08:12:07;;;;;;;2.85;2.08;;;;;;;;;;5087569;28;20027;-79
2023/03/02 08:14:33;;;;;;;3.42;1.95;;;;;;;;;;5089445;28;20080;-78
2023/03/02 08:16:58;;;;;;;2.67;1.85;;;;;;;;;;5081862;28;20089;-79
2023/03/02 08:19:25;;;;;;;5.65;2.88;;;;;;;;;;5079055;28;20103;-78
2023/03/02 08:21:51;;;;;;;2.53;1.85;;;;;;;;;;5084820;28;20027;-80
2023/03/02 08:24:16;;;;;;;2.80;2.17;;;;;;;;;;5081151;28;20035;-81
2023/03/02 08:26:42;;;;;;;4.00;2.75;;;;;;;;;;5079440;28;20028;-78
2023/03/02 08:29:08;;;;;;;3.78;2.25;;;;;;;;;;5087159;28;20032;-79
2023/03/02 08:31:33;;;;;;;2.88;2.22;;;;;;;;;;5104486;28;20117;-79
2023/03/02 08:33:59;;;;;;;3.35;2.15;;;;;;;;;;5081753;28;20031;-79
2023/03/02 08:36:24;;;;;;;6.35;2.92;;;;;;;;;;5084403;28;20480;-79
2023/03/02 08:38:51;;;;;;;2.72;1.65;;;;;;;;;;5086157;28;20118;-80
2023/03/02 08:41:19;;;;;;;2.40;0.93;;;;;;;;;;5106331;28;20119;-78
2023/03/02 08:43:45;;;;;;;2.42;1.67;;;;;;;;;;5087094;28;20066;-79
2023/03/02 08:46:12;;;;;;;2.75;2.05;;;;;;;;;;5077448;28;20025;-80
2023/03/02 08:48:38;;;;;;;3.55;2.13;;;;;;;;;;5090503;28;20182;-78
2023/03/02 08:51:11;;;;;;;6.50;2.70;;;;;;;;;;5086463;28;20111;-81
2023/03/02 08:53:39;;;;;;;2.25;1.55;;;;;;;;;;5083337;28;20103;-79
2023/03/02 08:56:23;;;;;;;6.80;2.92;;;;;;;;;;5090794;28;20028;-81
2023/03/02 08:58:51;;;;;;;2.13;1.50;;;;;;;;;;5086898;28;20031;-79
2023/03/02 09:01:20;;;;;;;3.40;1.52;;;;;;;;;;5089849;28;20503;-81
2023/03/02 09:03:45;;;;;;;2.70;2.08;;;;;;;;;;5085778;28;20093;-81
2023/03/02 09:06:12;;;;;;;1.35;1.23;;;;;;;;;;5085431;28;20029;-79
2023/03/02 09:08:38;;;;;;;3.13;1.98;;;;;;;;;;5085717;28;20460;-80
2023/03/02 09:11:04;;;;;;;4.55;2.70;;;;;;;;;;5080617;28;20028;-80
2023/03/02 09:13:30;;;;;;;5.78;2.63;;;;;;;;;;5082514;28;20036;-79
2023/03/02 09:15:56;;;;;;;2.72;1.70;;;;;;;;;;5085464;28;20028;-79
2023/03/02 09:18:23;;;;;;;2.33;1.90;;;;;;;;;;5082334;28;20035;-80
2023/03/02 09:20:52;;;;;;;6.05;2.38;;;;;;;;;;5085925;28;20016;-80
2023/03/02 09:23:18;;;;;;;5.88;2.83;;;;;;;;;;5079700;28;20029;-80
2023/03/02 09:25:46;;;;;;;2.55;1.85;;;;;;;;;;5082467;28;20047;-79
2023/03/02 09:28:12;;;;;;;1.20;1.05;;;;;;;;;;5084122;28;20032;-81
2023/03/02 09:30:37;;;;;;;1.33;1.05;;;;;;;;;;5082806;28;20479;-80
2023/03/02 09:33:02;;;;;;;5.30;1.85;;;;;;;;;;5081580;28;20114;-80
2023/03/02 09:35:28;;;;;;;2.22;1.15;;;;;;;;;;5104460;28;20554;-80
2023/03/02 09:37:53;;;;;;;4.60;1.55;;;;;;;;;;5087332;28;20113;-80
2023/03/02 09:40:26;;;;;;;1.80;1.50;;;;;;;;;;5083988;28;20030;-80
2023/03/02 09:43:14;;;;;;;1.98;1.60;;;;;;;;;;5076331;28;20034;-80
2023/03/02 09:46:09;;;;;;;3.38;2.20;;;;;;;;;;5085758;28;20498;-80
2023/03/02 09:48:55;;;;;;;1.75;1.25;;;;;;;;;;5091307;28;20032;-80
2023/03/02 09:51:33;;;;;;;2.45;1.85;;;;;;;;;;5084319;28;20028;-79
2023/03/02 09:54:09;;;;;;;3.53;1.38;;;;;;;;;;5084773;28;20052;-80
2023/03/02 09:56:41;;;;;;;1.90;1.40;;;;;;;;;;5085108;28;20023;-80
2023/03/02 09:59:18;;;;;;;2.45;1.13;;;;;;;;;;5086293;28;20036;-80
2023/03/02 10:01:52;;;;;;;1.38;1.08;;;;;;;;;;5086936;28;20423;-81
2023/03/02 10:04:24;;;;;;;1.58;0.98;;;;;;;;;;5086990;28;20024;-82
2023/03/02 10:07:09;;;;;;;1.98;1.65;;;;;;;;;;5088443;28;20020;-80
2023/03/02 10:09:35;;;;;;;1.52;1.15;;;;;;;;;;5088314;28;20027;-81
2023/03/02 10:12:16;;;;;;;2.47;1.38;;;;;;;;;;5090869;28;20483;-83
2023/03/02 10:14:48;;;;;;;1.90;1.50;;;;;;;;;;5090403;28;20024;-81
2023/03/02 10:17:40;;;;;;;2.60;1.02;;;;;;;;;;5089962;28;20069;-81
2023/03/02 10:20:19;;;;;;;1.23;0.85;;;;;;;;;;5087111;28;20036;-80
2023/03/02 10:22:50;;;;;;;2.05;1.55;;;;;;;;;;5107020;28;20055;-83
2023/03/02 10:25:25;;;;;;;1.17;0.82;;;;;;;;;;5086356;28;20080;-82
2023/03/02 10:28:16;;;;;;;1.00;0.73;;;;;;;;;;5089800;28;20067;-84
2023/03/02 10:30:43;;;;;;;0.63;0.60;;;;;;;;;;5088123;28;20487;-82
2023/03/02 10:33:15;;;;;;;1.02;1.00;;;;;;;;;;5086065;28;20322;-81
2023/03/02 10:35:46;;;;;;;0.73;0.60;;;;;;;;;;5086432;28;20024;-83
2023/03/02 10:38:21;;;;;;;1.63;1.33;;;;;;;;;;5088154;28;20048;-82
2023/03/02 10:40:58;;;;;;;2.90;1.20;;;;;;;;;;5103102;28;20383;-82
2023/03/02 10:43:26;;;;;;;3.83;1.45;;;;;;;;;;5084569;28;20020;-82
2023/03/02 10:46:06;;;;;;;1.85;1.38;;;;;;;;;;5086624;28;20028;-82
2023/03/02 10:48:32;;;;;;;1.45;1.35;;;;;;;;;;5082386;28;20086;-82
2023/03/02 10:50:59;;;;;;;1.33;1.17;;;;;;;;;;5082728;28;20035;-81
2023/03/02 10:53:25;;;;;;;3.55;2.38;;;;;;;;;;5087787;28;20883;-83
2023/03/02 10:55:52;;;;;;;3.72;1.85;;;;;;;;;;5085413;28;20154;-83
2023/03/02 10:58:35;;;;;;;3.45;1.73;;;;;;;;;;5084329;28;20052;-81
2023/03/02 11:01:13;;;;;;;1.92;1.40;;;;;;;;;;5083896;28;20024;-82
2023/03/02 11:03:39;;;;;;;1.80;1.63;;;;;;;;;;5085076;28;20031;-82
2023/03/02 11:06:18;;;;;;;3.28;1.85;;;;;;;;;;5086782;28;20016;-83
2023/03/02 11:08:44;;;;;;;1.30;1.15;;;;;;;;;;5083011;28;20027;-86
2023/03/02 11:11:22;;;;;;;3.90;2.50;;;;;;;;;;5084161;28;20036;-81
2023/03/02 11:13:47;;;;;;;2.47;1.27;;;;;;;;;;5088261;28;20078;-81
2023/03/02 11:16:15;;;;;;;1.30;1.10;;;;;;;;;;5088497;28;20456;-82
2023/03/02 11:18:44;;;;;;;3.45;2.00;;;;;;;;;;5084131;28;20029;-82
2023/03/02 11:21:15;;;;;;;2.08;1.65;;;;;;;;;;5087876;28;20054;-81
2023/03/02 11:23:55;;;;;;;1.77;1.23;;;;;;;;;;5079134;28;20097;-80
2023/03/02 11:27:02;;;;;;;1.65;1.50;;;;;;;;;;5079864;28;20114;-83
2023/03/02 11:29:50;;;;;;;3.15;2.03;;;;;;;;;;5072977;28;20036;-81
2023/03/02 11:32:29;;;;;;;2.60;1.85;;;;;;;;;;5080638;28;20056;-80
2023/03/02 11:34:55;;;;;;;6.07;1.77;;;;;;;;;;5076232;28;20472;-82
2023/03/02 11:37:24;;;;;;;2.92;1.90;;;;;;;;;;5080762;28;20119;-82
2023/03/02 11:39:58;;;;;;;2.97;1.45;;;;;;;;;;5080127;28;20024;-81
2023/03/02 11:42:34;;;;;;;2.50;1.63;;;;;;;;;;5099756;28;20031;-81
2023/03/02 11:45:07;;;;;;;2.47;1.70;;;;;;;;;;5086283;28;20110;-79
2023/03/02 11:47:34;;;;;;;6.18;2.30;;;;;;;;;;5074291;28;20036;-80
2023/03/02 11:50:04;;;;;;;9.07;1.92;;;;;;;;;;5088502;28;20051;-80
2023/03/02 11:52:33;;;;;;;5.45;2.15;;;;;;;;;;5083242;28;20082;-78
2023/03/02 11:55:16;;;;;;;3.90;2.58;;;;;;;;;;5080404;28;20037;-78
2023/03/02 11:57:48;;;;;;;6.45;2.45;;;;;;;;;;5101074;28;20077;-80
2023/03/02 12:00:23;;;;;;;6.30;2.15;;;;;;;;;;5090549;28;20077;-78
2023/03/02 12:03:17;;;;;;;3.85;2.05;;;;;;;;;;5100532;28;20024;-79
2023/03/02 12:05:57;;;;;;;2.88;1.58;;;;;;;;;;5087151;28;20024;-81
2023/03/02 12:08:23;;;;;;;4.18;1.95;;;;;;;;;;5085402;28;20016;-82
2023/03/02 12:11:15;;;;;;;1.30;1.20;;;;;;;;;;5087493;28;20342;-80
2023/03/02 12:13:44;;;;;;;12.43;1.50;;;;;;;;;;5073276;28;20082;-80
2023/03/02 12:16:21;;;;;;;1.30;1.17;;;;;;;;;;5089209;28;20038;-78
2023/03/02 12:18:48;;;;;;;2.95;2.22;;;;;;;;;;5087232;28;20532;-80
2023/03/02 12:21:22;;;;;;;2.08;1.25;;;;;;;;;;5085636;28;20031;-83
2023/03/02 12:23:50;;;;;;;4.10;1.95;;;;;;;;;;5081409;28;20031;-82
2023/03/02 12:26:19;;;;;;;3.08;1.83;;;;;;;;;;5083394;28;20031;-78
2023/03/02 12:29:08;;;;;;;1.77;1.35;;;;;;;;;;5083466;28;20107;-76
2023/03/02 12:31:47;;;;;;;0.68;0.65;;;;;;;;;;5084959;28;20056;-79
2023/03/02 12:34:37;;;;;;;4.55;1.98;;;;;;;;;;5104694;28;20024;-77
2023/03/02 12:37:07;;;;;;;3.50;1.92;;;;;;;;;;5087326;28;20048;-77
2023/03/02 12:39:41;;;;;;;1.90;1.33;;;;;;;;;;5091930;28;20490;-79
2023/03/02 12:42:13;;;;;;;1.92;1.23;;;;;;;;;;5093834;28;20027;-75
2023/03/02 12:44:59;;;;;;;4.22;1.70;;;;;;;;;;5087691;28;20044;-78
2023/03/02 12:47:28;;;;;;;2.58;1.60;;;;;;;;;;5088875;28;20158;-76
2023/03/02 12:50:00;;;;;;;2.05;1.23;;;;;;;;;;5084058;28;20080;-78
2023/03/02 12:52:30;;;;;;;1.85;1.23;;;;;;;;;;5085800;28;20032;-76
2023/03/02 12:55:19;;;;;;;2.05;1.60;;;;;;;;;;5087346;28;20177;-76
2023/03/02 12:57:49;;;;;;;2.90;1.73;;;;;;;;;;5076208;28;20097;-77
2023/03/02 13:00:17;;;;;;;5.20;2.42;;;;;;;;;;5086216;28;20068;-77
2023/03/02 13:02:49;;;;;;;2.35;1.63;;;;;;;;;;5090462;28;20059;-80
2023/03/02 13:05:20;;;;;;;3.55;1.45;;;;;;;;;;5090170;28;20031;-76
2023/03/02 13:07:55;;;;;;;3.92;1.77;;;;;;;;;;5090448;28;20035;-76
2023/03/02 13:10:26;;;;;;;3.40;2.00;;;;;;;;;;5089388;28;20069;-78
2023/03/02 13:12:51;;;;;;;2.33;1.42;;;;;;;;;;5090221;28;20032;-76
2023/03/02 13:15:18;;;;;;;3.65;2.17;;;;;;;;;;5088005;28;20028;-77
2023/03/02 13:17:51;;;;;;;5.10;2.35;;;;;;;;;;5079555;28;20028;-76
2023/03/02 13:20:17;;;;;;;2.80;1.40;;;;;;;;;;5093308;28;20124;-78
2023/03/02 13:22:43;;;;;;;7.60;1.83;;;;;;;;;;5094419;28;20063;-78
2023/03/02 13:25:21;;;;;;;2.80;1.40;;;;;;;;;;5093956;28;20431;-76
2023/03/02 13:28:28;;;;;;;5.50;1.50;;;;;;;;;;5090284;28;20494;-79
2023/03/02 13:31:03;;;;;;;4.93;1.58;;;;;;;;;;5081196;28;20044;-75
2023/03/02 13:33:30;;;;;;;2.92;2.33;;;;;;;;;;5093777;28;20488;-77
2023/03/02 13:35:56;;;;;;;2.67;1.25;;;;;;;;;;5093974;28;20055;-77
2023/03/02 13:38:25;;;;;;;3.35;1.77;;;;;;;;;;5089331;28;20120;-76
2023/03/02 13:40:54;;;;;;;3.80;2.42;;;;;;;;;;5089848;28;20095;-77
2023/03/02 13:43:28;;;;;;;1.73;1.47;;;;;;;;;;5093190;28;20024;-79
2023/03/02 13:46:03;;;;;;;4.97;2.33;;;;;;;;;;5094045;28;20383;-78
2023/03/02 13:48:30;;;;;;;8.13;3.70;;;;;;;;;;5090976;28;20024;-76
2023/03/02 13:51:02;;;;;;;3.58;1.70;;;;;;;;;;5093780;28;20031;-77
2023/03/02 13:53:30;;;;;;;4.75;2.65;;;;;;;;;;5087596;28;20032;-77
2023/03/02 13:55:59;;;;;;;4.57;2.90;;;;;;;;;;5088484;28;20032;-79
2023/03/02 13:58:27;;;;;;;2.10;1.67;;;;;;;;;;5093496;28;20039;-77
2023/03/02 14:00:52;;;;;;;1.83;1.48;;;;;;;;;;5093330;28;20027;-77
2023/03/02 14:03:29;;;;;;;4.95;2.50;;;;;;;;;;5092049;28;20036;-76
2023/03/02 14:05:55;;;;;;;9.30;1.98;;;;;;;;;;5092158;28;20479;-75
2023/03/02 14:08:21;;;;;;;4.15;2.75;;;;;;;;;;5093166;28;20387;-77
2023/03/02 14:10:48;;;;;;;3.22;2.08;;;;;;;;;;5088103;28;20028;-80
2023/03/02 14:13:17;;;;;;;3.08;1.92;;;;;;;;;;5092426;28;20016;-77
2023/03/02 14:15:47;;;;;;;6.13;3.40;;;;;;;;;;5092170;28;20031;-77
2023/03/02 14:18:25;;;;;;;3.75;2.05;;;;;;;;;;5087994;28;20024;-80
2023/03/02 14:20:50;;;;;;;6.82;2.45;;;;;;;;;;5078700;28;20032;-78
2023/03/02 14:23:16;;;;;;;4.05;2.22;;;;;;;;;;5090430;28;20114;-76
2023/03/02 14:25:41;;;;;;;4.35;2.47;;;;;;;;;;5088490;28;20051;-77
2023/03/02 14:28:11;;;;;;;2.47;1.65;;;;;;;;;;5086177;28;21298;-77
2023/03/02 14:30:38;;;;;;;4.03;2.70;;;;;;;;;;5088243;28;20498;-78
2023/03/02 14:33:04;;;;;;;3.53;2.58;;;;;;;;;;5092649;28;21649;-78
2023/03/02 14:35:29;;;;;;;3.20;1.85;;;;;;;;;;5085221;28;20085;-79
2023/03/02 14:37:55;;;;;;;3.35;2.30;;;;;;;;;;5090599;28;20031;-77
2023/03/02 14:40:24;;;;;;;2.97;2.30;;;;;;;;;;5088528;28;20024;-78
2023/03/02 14:42:52;;;;;;;3.17;2.55;;;;;;;;;;5092409;28;20093;-78
2023/03/02 14:45:19;;;;;;;4.10;2.60;;;;;;;;;;5089577;28;20028;-76
2023/03/02 14:47:44;;;;;;;6.22;4.18;;;;;;;;;;5088906;28;20074;-76
2023/03/02 14:50:11;;;;;;;4.95;2.72;;;;;;;;;;5093790;28;20051;-77
2023/03/02 14:52:41;;;;;;;2.60;1.67;;;;;;;;;;5080959;28;20114;-75
2023/03/02 14:55:13;;;;;;;4.13;2.33;;;;;;;;;;5088274;28;20470;-76
2023/03/02 14:57:39;;;;;;;3.80;2.78;;;;;;;;;;5084019;28;20118;-76